createdAt,value
2023-05-21T00:01:16.425Z,100.00
2023-05-21T00:03:46.372Z,100.00
2023-05-21T00:06:15.534Z,100.00
2023-05-21T00:08:43.706Z,100.00
2023-05-21T00:11:11.953Z,100.00
2023-05-21T00:13:39.961Z,100.00
2023-05-21T00:16:07.841Z,100.00
2023-05-21T00:18:36.240Z,100.00
2023-05-21T00:21:03.826Z,100.00
2023-05-21T00:23:32.928Z,100.00
2023-05-21T00:26:00.663Z,100.00
2023-05-21T00:28:28.346Z,100.00
2023-05-21T00:30:57.030Z,100.00
2023-05-21T00:33:26.786Z,100.00
2023-05-21T00:35:54.448Z,100.00
2023-05-21T00:38:23.368Z,100.00
2023-05-21T00:40:51.387Z,100.00
2023-05-21T00:43:19.027Z,100.00
2023-05-21T00:45:47.637Z,100.00
2023-05-21T00:48:16.051Z,100.00
2023-05-21T00:50:45.001Z,100.00
2023-05-21T00:53:15.457Z,100.00
2023-05-21T00:55:43.081Z,100.00
2023-05-21T00:58:10.863Z,100.00
2023-05-21T01:00:40.625Z,100.00
2023-05-21T01:03:08.598Z,100.00
2023-05-21T01:05:37.528Z,100.00
2023-05-21T01:08:05.833Z,100.00
2023-05-21T01:10:33.675Z,100.00
2023-05-21T01:13:01.947Z,100.00
2023-05-21T01:15:30.411Z,100.00
2023-05-21T01:17:58.422Z,100.00
2023-05-21T01:20:27.685Z,100.00
2023-05-21T01:22:56.928Z,100.00
2023-05-21T01:25:25.395Z,100.00
2023-05-21T01:27:53.251Z,100.00
2023-05-21T01:30:22.141Z,100.00
2023-05-21T01:33:02.930Z,100.00
2023-05-21T01:35:37.493Z,100.00
2023-05-21T01:38:17.434Z,100.00
2023-05-21T01:41:03.975Z,100.00
2023-05-21T01:43:39.285Z,100.00
2023-05-21T01:46:10.008Z,100.00
2023-05-21T01:48:38.759Z,100.00
2023-05-21T01:51:06.902Z,100.00
2023-05-21T01:53:34.452Z,100.00
2023-05-21T01:56:02.972Z,100.00
2023-05-21T01:58:31.140Z,100.00
2023-05-21T02:00:59.200Z,100.00
2023-05-21T02:03:31.088Z,100.00
2023-05-21T02:05:59.706Z,100.00
2023-05-21T02:08:27.977Z,100.00
2023-05-21T02:10:55.854Z,100.00
2023-05-21T02:13:26.507Z,100.00
2023-05-21T02:15:55.300Z,100.00
2023-05-21T02:18:23.929Z,100.00
2023-05-21T02:20:51.968Z,100.00
2023-05-21T02:23:19.585Z,100.00
2023-05-21T02:25:47.321Z,100.00
2023-05-21T02:28:15.932Z,100.00
2023-05-21T02:30:43.889Z,100.00
2023-05-21T02:33:14.382Z,100.00
2023-05-21T02:35:42.119Z,100.00
2023-05-21T02:38:10.582Z,100.00
2023-05-21T02:40:38.253Z,100.00
2023-05-21T02:43:06.293Z,100.00
2023-05-21T02:45:35.289Z,100.00
2023-05-21T02:48:03.378Z,100.00
2023-05-21T02:50:34.374Z,100.00
2023-05-21T02:53:02.262Z,100.00
2023-05-21T02:55:31.323Z,100.00
2023-05-21T02:57:59.423Z,100.00
2023-05-21T03:00:26.980Z,100.00
2023-05-21T03:02:55.452Z,100.00
2023-05-21T03:05:24.540Z,100.00
2023-05-21T03:07:53.424Z,100.00
2023-05-21T03:10:21.346Z,100.00
2023-05-21T03:12:49.013Z,100.00
2023-05-21T03:15:17.123Z,100.00
2023-05-21T03:17:45.695Z,100.00
2023-05-21T03:20:16.498Z,100.00
2023-05-21T03:22:45.579Z,100.00
2023-05-21T03:25:13.820Z,100.00
2023-05-21T03:27:41.451Z,100.00
2023-05-21T03:30:24.153Z,100.00
2023-05-21T03:33:12.470Z,100.00
2023-05-21T03:35:40.956Z,100.00
2023-05-21T03:38:08.582Z,100.00
2023-05-21T03:40:36.499Z,100.00
2023-05-21T03:43:04.860Z,100.00
2023-05-21T03:45:32.624Z,100.00
2023-05-21T03:48:23.125Z,100.00
2023-05-21T03:50:51.687Z,100.00
2023-05-21T03:53:19.289Z,100.00
2023-05-21T03:55:47.396Z,100.00
2023-05-21T03:58:14.884Z,100.00
2023-05-21T04:00:42.956Z,100.00
2023-05-21T04:03:11.774Z,100.00
2023-05-21T04:05:40.052Z,100.00
2023-05-21T04:08:08.044Z,100.00
2023-05-21T04:10:36.257Z,100.00
2023-05-21T04:13:03.897Z,100.00
2023-05-21T04:15:31.420Z,100.00
2023-05-21T04:17:59.031Z,100.00
2023-05-21T04:20:27.097Z,100.00
2023-05-21T04:22:55.386Z,100.00
2023-05-21T04:25:23.333Z,100.00
2023-05-21T04:27:51.144Z,100.00
2023-05-21T04:30:20.047Z,100.00
2023-05-21T04:32:48.283Z,100.00
2023-05-21T04:35:16.097Z,100.00
2023-05-21T04:37:46.045Z,100.00
2023-05-21T04:40:18.490Z,100.00
2023-05-21T04:42:46.835Z,100.00
2023-05-21T04:45:14.763Z,100.00
2023-05-21T04:47:45.311Z,100.00
2023-05-21T04:50:12.936Z,100.00
2023-05-21T04:52:40.599Z,100.00
2023-05-21T04:55:08.934Z,100.00
2023-05-21T04:57:36.727Z,100.00
2023-05-21T05:00:05.705Z,100.00
2023-05-21T05:02:38.932Z,100.00
2023-05-21T05:05:06.670Z,100.00
2023-05-21T05:07:34.235Z,100.00
2023-05-21T05:10:01.849Z,100.00
2023-05-21T05:12:29.659Z,100.00
2023-05-21T05:14:57.212Z,100.00
2023-05-21T05:17:25.682Z,100.00
2023-05-21T05:19:53.708Z,100.00
2023-05-21T05:22:21.230Z,100.00
2023-05-21T05:24:48.840Z,100.00
2023-05-21T05:27:16.449Z,100.00
2023-05-21T05:29:45.232Z,100.00
2023-05-21T05:32:12.986Z,100.00
2023-05-21T05:34:40.663Z,100.00
2023-05-21T05:37:08.315Z,100.00
2023-05-21T05:39:36.299Z,100.00
2023-05-21T05:42:04.635Z,100.00
2023-05-21T05:44:32.691Z,100.00
2023-05-21T05:47:00.715Z,100.00
2023-05-21T05:49:28.891Z,100.00
2023-05-21T05:51:56.759Z,100.00
2023-05-21T05:54:24.596Z,100.00
2023-05-21T05:56:52.956Z,100.00
2023-05-21T05:59:21.117Z,100.00
2023-05-21T06:01:50.959Z,100.00
2023-05-21T06:04:18.556Z,100.00
2023-05-21T06:06:47.492Z,100.00
2023-05-21T06:09:15.101Z,100.00
2023-05-21T06:11:43.088Z,100.00
2023-05-21T06:14:10.626Z,100.00
2023-05-21T06:16:39.163Z,100.00
2023-05-21T06:19:07.381Z,100.00
2023-05-21T06:21:35.419Z,100.00
2023-05-21T06:24:05.629Z,100.00
2023-05-21T06:26:33.208Z,100.00
2023-05-21T06:29:01.512Z,100.00
2023-05-21T06:31:33.010Z,100.00
2023-05-21T06:34:01.389Z,100.00
2023-05-21T06:36:30.125Z,100.00
2023-05-21T06:38:59.297Z,100.00
2023-05-21T06:41:27.220Z,100.00
2023-05-21T06:43:58.915Z,100.00
2023-05-21T06:46:45.139Z,100.00
2023-05-21T06:49:14.454Z,100.00
2023-05-21T06:51:43.593Z,100.00
2023-05-21T06:54:13.275Z,100.00
2023-05-21T06:56:42.005Z,98.45
2023-05-21T06:59:09.886Z,97.56
2023-05-21T07:01:38.202Z,95.99
2023-05-21T07:04:06.077Z,93.58
2023-05-21T07:06:34.896Z,92.77
2023-05-21T07:09:02.567Z,85.30
2023-05-21T07:11:31.522Z,79.13
2023-05-21T07:14:02.060Z,78.45
2023-05-21T07:16:31.921Z,63.70
2023-05-21T07:19:00.214Z,65.34
2023-05-21T07:21:27.798Z,60.03
2023-05-21T07:23:56.729Z,54.33
2023-05-21T07:26:26.350Z,52.79
2023-05-21T07:28:53.894Z,50.82
2023-05-21T07:31:21.464Z,50.73
2023-05-21T07:33:52.227Z,49.55
2023-05-21T07:36:23.564Z,50.28
2023-05-21T07:38:51.704Z,51.05
2023-05-21T07:41:19.533Z,52.94
2023-05-21T07:43:48.814Z,57.74
2023-05-21T07:46:17.075Z,71.50
2023-05-21T07:48:46.640Z,66.14
2023-05-21T07:51:14.663Z,69.72
2023-05-21T07:53:42.248Z,68.08
2023-05-21T07:56:12.433Z,64.40
2023-05-21T07:58:40.660Z,61.67
2023-05-21T08:01:08.889Z,60.18
2023-05-21T08:03:36.660Z,59.18
2023-05-21T08:06:04.982Z,56.51
2023-05-21T08:08:33.424Z,52.15
2023-05-21T08:11:01.779Z,53.09
2023-05-21T08:13:31.259Z,52.83
2023-05-21T08:15:59.123Z,53.33
2023-05-21T08:18:27.694Z,51.68
2023-05-21T08:20:57.642Z,52.75
2023-05-21T08:23:27.259Z,49.11
2023-05-21T08:25:56.765Z,47.67
2023-05-21T08:28:27.206Z,46.05
2023-05-21T08:30:55.731Z,45.76
2023-05-21T08:33:25.733Z,45.70
2023-05-21T08:35:53.958Z,45.96
2023-05-21T08:38:27.524Z,44.99
2023-05-21T08:41:07.976Z,47.73
2023-05-21T08:43:37.769Z,45.65
2023-05-21T08:46:06.841Z,44.91
2023-05-21T08:48:39.073Z,39.72
2023-05-21T08:51:06.768Z,42.60
2023-05-21T08:53:39.487Z,44.39
2023-05-21T08:56:13.167Z,40.18
2023-05-21T08:58:49.061Z,37.45
2023-05-21T09:01:20.329Z,37.24
2023-05-21T09:04:04.836Z,35.57
2023-05-21T09:06:37.870Z,36.66
2023-05-21T09:09:24.366Z,36.66
2023-05-21T09:11:52.034Z,36.23
2023-05-21T09:14:21.553Z,36.40
2023-05-21T09:17:06.836Z,35.38
2023-05-21T09:19:35.336Z,35.10
2023-05-21T09:22:04.135Z,34.26
2023-05-21T09:24:36.073Z,34.55
2023-05-21T09:27:07.819Z,34.68
2023-05-21T09:29:35.612Z,34.33
2023-05-21T09:32:08.856Z,35.04
2023-05-21T09:34:41.440Z,35.07
2023-05-21T09:37:23.791Z,35.97
2023-05-21T09:39:55.874Z,36.75
2023-05-21T09:42:23.997Z,36.53
2023-05-21T09:44:51.819Z,37.70
2023-05-21T09:47:21.327Z,37.85
2023-05-21T09:49:49.464Z,38.83
2023-05-21T09:52:26.048Z,37.85
2023-05-21T09:54:53.902Z,36.70
2023-05-21T09:57:25.914Z,37.52
2023-05-21T09:59:54.166Z,36.24
2023-05-21T10:02:23.912Z,35.31
2023-05-21T10:04:54.632Z,35.40
2023-05-21T10:07:26.409Z,33.97
2023-05-21T10:09:58.012Z,33.44
2023-05-21T10:12:28.878Z,32.67
2023-05-21T10:15:05.095Z,32.90
2023-05-21T10:17:35.035Z,33.08
2023-05-21T10:20:05.193Z,32.33
2023-05-21T10:22:33.828Z,31.92
2023-05-21T10:25:03.783Z,31.96
2023-05-21T10:27:33.047Z,33.15
2023-05-21T10:30:01.162Z,32.21
2023-05-21T10:32:28.971Z,30.78
2023-05-21T10:34:59.300Z,31.79
2023-05-21T10:37:29.115Z,32.50
2023-05-21T10:39:57.198Z,34.26
2023-05-21T10:42:24.643Z,34.83
2023-05-21T10:45:32.525Z,32.55
2023-05-21T10:48:26.573Z,30.42
2023-05-21T10:51:09.486Z,26.58
2023-05-21T10:54:14.422Z,26.19
2023-05-21T10:56:55.849Z,26.33
2023-05-21T10:59:35.984Z,27.87
2023-05-21T11:02:05.425Z,26.98
2023-05-21T11:04:35.185Z,27.14
2023-05-21T11:07:03.303Z,26.27
2023-05-21T11:09:31.009Z,26.50
2023-05-21T11:12:00.328Z,26.02
2023-05-21T11:14:36.031Z,25.88
2023-05-21T11:17:12.608Z,26.35
2023-05-21T11:19:47.400Z,26.54
2023-05-21T11:22:25.542Z,25.70
2023-05-21T11:24:56.814Z,24.91
2023-05-21T11:27:34.652Z,22.82
2023-05-21T11:30:06.717Z,23.82
2023-05-21T11:32:39.887Z,23.92
2023-05-21T11:35:08.219Z,23.51
2023-05-21T11:37:35.979Z,23.45
2023-05-21T11:40:21.431Z,23.39
2023-05-21T11:42:51.351Z,24.25
2023-05-21T11:45:20.983Z,24.88
2023-05-21T11:47:49.846Z,24.47
2023-05-21T11:50:18.327Z,23.39
2023-05-21T11:52:46.448Z,24.19
2023-05-21T11:55:15.905Z,25.55
2023-05-21T11:57:44.860Z,25.13
2023-05-21T12:00:15.498Z,25.22
2023-05-21T12:02:54.019Z,25.55
2023-05-21T12:05:23.475Z,25.34
2023-05-21T12:07:51.168Z,24.81
2023-05-21T12:10:23.805Z,25.03
2023-05-21T12:12:55.619Z,22.87
2023-05-21T12:15:27.612Z,23.47
2023-05-21T12:17:56.217Z,24.68
2023-05-21T12:20:28.216Z,23.64
2023-05-21T12:22:57.411Z,23.60
2023-05-21T12:25:25.206Z,25.22
2023-05-21T12:27:57.998Z,24.53
2023-05-21T12:30:26.595Z,24.16
2023-05-21T12:32:58.035Z,23.31
2023-05-21T12:35:25.736Z,22.89
2023-05-21T12:37:53.907Z,22.14
2023-05-21T12:40:22.417Z,20.88
2023-05-21T12:42:50.791Z,20.75
2023-05-21T12:45:18.970Z,20.08
2023-05-21T12:47:50.812Z,20.21
2023-05-21T12:50:21.588Z,20.39
2023-05-21T12:52:49.343Z,22.59
2023-05-21T12:55:17.137Z,21.55
2023-05-21T12:57:44.843Z,20.36
2023-05-21T13:00:13.212Z,20.44
2023-05-21T13:02:42.729Z,19.99
2023-05-21T13:05:19.455Z,20.44
2023-05-21T13:07:47.906Z,19.43
2023-05-21T13:10:18.970Z,18.88
2023-05-21T13:12:47.260Z,21.87
2023-05-21T13:15:15.319Z,21.39
2023-05-21T13:17:43.004Z,19.64
2023-05-21T13:20:13.276Z,21.50
2023-05-21T13:22:48.739Z,25.02
2023-05-21T13:25:20.180Z,26.04
2023-05-21T13:27:50.571Z,26.36
2023-05-21T13:30:19.142Z,27.93
2023-05-21T13:32:48.428Z,26.27
2023-05-21T13:35:17.398Z,22.42
2023-05-21T13:37:45.524Z,21.71
2023-05-21T13:40:16.090Z,21.78
2023-05-21T13:42:45.667Z,20.31
2023-05-21T13:45:16.046Z,21.17
2023-05-21T13:47:45.446Z,25.81
2023-05-21T13:50:13.666Z,27.19
2023-05-21T13:52:42.240Z,25.79
2023-05-21T13:55:10.735Z,20.86
2023-05-21T13:57:40.703Z,19.78
2023-05-21T14:00:14.316Z,20.99
2023-05-21T14:02:43.508Z,20.35
2023-05-21T14:05:11.937Z,19.29
2023-05-21T14:07:40.193Z,19.68
2023-05-21T14:10:08.924Z,19.94
2023-05-21T14:12:36.696Z,21.97
2023-05-21T14:15:04.733Z,24.36
2023-05-21T14:17:32.723Z,22.98
2023-05-21T14:20:00.573Z,22.08
2023-05-21T14:22:28.231Z,19.77
2023-05-21T14:24:56.460Z,18.71
2023-05-21T14:27:23.952Z,16.07
2023-05-21T14:29:54.812Z,16.58
2023-05-21T14:32:22.436Z,17.92
2023-05-21T14:34:50.185Z,16.39
2023-05-21T14:37:18.255Z,16.06
2023-05-21T14:39:46.311Z,16.72
2023-05-21T14:42:14.236Z,16.55
2023-05-21T14:44:41.889Z,16.72
2023-05-21T14:47:09.915Z,17.07
2023-05-21T14:49:37.428Z,16.41
2023-05-21T14:52:05.434Z,17.51
2023-05-21T14:54:33.040Z,18.05
2023-05-21T14:57:00.623Z,18.79
2023-05-21T14:59:28.255Z,17.34
2023-05-21T15:01:56.111Z,17.56
2023-05-21T15:04:24.471Z,17.47
2023-05-21T15:06:52.345Z,16.51
2023-05-21T15:09:19.868Z,18.38
2023-05-21T15:11:52.416Z,15.76
2023-05-21T15:14:20.989Z,15.71
2023-05-21T15:16:49.452Z,17.36
2023-05-21T15:19:17.619Z,17.84
2023-05-21T15:21:46.161Z,17.33
2023-05-21T15:24:13.835Z,17.63
2023-05-21T15:26:41.813Z,17.40
2023-05-21T15:29:09.549Z,18.54
2023-05-21T15:31:39.534Z,18.29
2023-05-21T15:34:07.482Z,17.92
2023-05-21T15:36:35.165Z,18.33
2023-05-21T15:39:03.754Z,17.93
2023-05-21T15:41:37.676Z,17.79
2023-05-21T15:44:06.036Z,17.84
2023-05-21T15:46:33.861Z,19.16
2023-05-21T15:49:01.965Z,19.47
2023-05-21T15:51:29.734Z,19.44
2023-05-21T15:53:57.597Z,19.29
2023-05-21T15:56:26.782Z,18.74
2023-05-21T15:58:54.482Z,19.05
2023-05-21T16:01:22.803Z,19.35
2023-05-21T16:03:50.829Z,18.75
2023-05-21T16:06:18.673Z,17.64
2023-05-21T16:08:47.905Z,17.66
2023-05-21T16:11:16.681Z,17.89
2023-05-21T16:13:44.747Z,19.36
2023-05-21T16:16:12.376Z,19.86
2023-05-21T16:18:40.562Z,19.12
2023-05-21T16:21:08.723Z,18.11
2023-05-21T16:23:38.660Z,19.44
2023-05-21T16:26:07.298Z,20.07
2023-05-21T16:28:37.458Z,21.98
2023-05-21T16:31:05.796Z,21.65
2023-05-21T16:33:33.722Z,21.27
2023-05-21T16:36:01.597Z,21.50
2023-05-21T16:38:29.232Z,21.17
2023-05-21T16:40:57.538Z,21.75
2023-05-21T16:43:26.204Z,23.46
2023-05-21T16:45:54.046Z,24.04
2023-05-21T16:48:22.221Z,22.52
2023-05-21T16:50:50.081Z,21.63
2023-05-21T16:53:18.318Z,21.72
2023-05-21T16:55:46.036Z,23.49
2023-05-21T16:58:14.509Z,22.38
2023-05-21T17:00:42.390Z,23.24
2023-05-21T17:03:11.247Z,24.16
2023-05-21T17:05:39.829Z,24.96
2023-05-21T17:08:08.786Z,24.83
2023-05-21T17:10:36.362Z,24.69
2023-05-21T17:13:17.673Z,25.04
2023-05-21T17:15:49.013Z,24.84
2023-05-21T17:18:16.766Z,24.07
2023-05-21T17:20:44.503Z,26.35
2023-05-21T17:23:13.307Z,27.28
2023-05-21T17:25:41.908Z,28.99
2023-05-21T17:28:09.640Z,30.19
2023-05-21T17:30:37.647Z,31.64
2023-05-21T17:33:06.621Z,32.66
2023-05-21T17:35:35.276Z,33.91
2023-05-21T17:38:03.050Z,34.44
2023-05-21T17:40:30.842Z,34.64
2023-05-21T17:42:59.164Z,35.10
2023-05-21T17:45:27.044Z,35.22
2023-05-21T17:47:59.680Z,34.98
2023-05-21T17:50:28.291Z,36.18
2023-05-21T17:52:56.434Z,36.28
2023-05-21T17:55:23.972Z,36.35
2023-05-21T17:57:51.604Z,36.53
2023-05-21T18:00:19.654Z,37.19
2023-05-21T18:02:47.246Z,37.29
2023-05-21T18:05:14.920Z,37.85
2023-05-21T18:07:42.919Z,37.66
2023-05-21T18:10:10.827Z,38.24
2023-05-21T18:12:39.460Z,38.37
2023-05-21T18:15:07.782Z,38.21
2023-05-21T18:17:35.444Z,38.72
2023-05-21T18:20:04.506Z,38.77
2023-05-21T18:22:32.167Z,39.37
2023-05-21T18:24:59.693Z,39.66
2023-05-21T18:27:27.440Z,39.66
2023-05-21T18:29:54.965Z,39.88
2023-05-21T18:32:23.483Z,39.44
2023-05-21T18:34:51.267Z,40.05
2023-05-21T18:37:18.792Z,40.07
2023-05-21T18:39:46.373Z,40.82
2023-05-21T18:42:14.916Z,40.98
2023-05-21T18:44:45.795Z,41.39
2023-05-21T18:47:13.985Z,41.22
2023-05-21T18:49:41.530Z,41.29
2023-05-21T18:52:09.615Z,41.65
2023-05-21T18:54:38.251Z,42.35
2023-05-21T18:57:06.410Z,42.96
2023-05-21T18:59:34.542Z,43.41
2023-05-21T19:02:04.463Z,43.34
2023-05-21T19:04:32.382Z,42.99
2023-05-21T19:07:00.537Z,44.04
2023-05-21T19:09:28.093Z,43.94
2023-05-21T19:11:56.497Z,44.58
2023-05-21T19:14:24.242Z,45.76
2023-05-21T19:16:52.471Z,46.96
2023-05-21T19:19:20.491Z,47.72
2023-05-21T19:21:48.684Z,47.82
2023-05-21T19:24:16.423Z,48.69
2023-05-21T19:26:43.957Z,49.20
2023-05-21T19:29:12.075Z,48.94
2023-05-21T19:31:40.034Z,50.79
2023-05-21T19:34:10.713Z,51.17
2023-05-21T19:36:52.164Z,51.51
2023-05-21T19:39:21.687Z,52.62
2023-05-21T19:41:49.340Z,54.18
2023-05-21T19:44:17.442Z,52.95
2023-05-21T19:46:45.583Z,52.64
2023-05-21T19:49:14.613Z,52.90
2023-05-21T19:51:42.382Z,54.03
2023-05-21T19:54:10.567Z,54.95
2023-05-21T19:56:38.549Z,56.88
2023-05-21T19:59:06.403Z,56.28
2023-05-21T20:01:39.407Z,56.51
2023-05-21T20:04:07.767Z,56.05
2023-05-21T20:06:36.184Z,56.38
2023-05-21T20:09:05.690Z,55.47
2023-05-21T20:11:34.494Z,56.09
2023-05-21T20:14:02.375Z,54.63
2023-05-21T20:16:30.473Z,53.85
2023-05-21T20:18:58.402Z,53.01
2023-05-21T20:21:27.228Z,54.41
2023-05-21T20:23:55.308Z,53.36
2023-05-21T20:26:23.360Z,53.40
2023-05-21T20:28:51.438Z,52.93
2023-05-21T20:31:19.107Z,52.60
2023-05-21T20:33:50.754Z,52.37
2023-05-21T20:36:18.664Z,52.97
2023-05-21T20:38:47.244Z,53.41
2023-05-21T20:41:15.205Z,53.78
2023-05-21T20:43:45.306Z,53.82
2023-05-21T20:46:12.970Z,54.20
2023-05-21T20:48:41.857Z,53.95
2023-05-21T20:51:09.956Z,56.27
2023-05-21T20:53:37.504Z,54.12
2023-05-21T20:56:08.649Z,55.24
2023-05-21T20:58:36.439Z,56.06
2023-05-21T21:01:04.669Z,55.03
2023-05-21T21:03:34.220Z,56.56
2023-05-21T21:06:03.149Z,57.30
2023-05-21T21:08:31.944Z,57.52
2023-05-21T21:11:00.223Z,57.90
2023-05-21T21:13:27.783Z,58.71
2023-05-21T21:15:55.462Z,57.19
2023-05-21T21:18:23.020Z,57.04
2023-05-21T21:20:51.013Z,57.86
2023-05-21T21:23:18.552Z,54.16
2023-05-21T21:25:46.414Z,53.85
2023-05-21T21:28:16.565Z,53.48
2023-05-21T21:30:45.009Z,52.41
2023-05-21T21:33:14.517Z,53.19
2023-05-21T21:35:42.990Z,53.32
2023-05-21T21:38:10.755Z,54.75
2023-05-21T21:40:38.539Z,54.19
2023-05-21T21:43:06.409Z,54.56
2023-05-21T21:45:34.123Z,55.99
2023-05-21T21:48:03.237Z,57.23
2023-05-21T21:50:31.453Z,59.67
2023-05-21T21:52:59.980Z,61.83
2023-05-21T21:55:28.197Z,61.78
2023-05-21T21:57:56.731Z,64.54
2023-05-21T22:00:26.767Z,66.83
2023-05-21T22:02:54.762Z,67.83
2023-05-21T22:05:22.695Z,67.50
2023-05-21T22:07:51.605Z,68.90
2023-05-21T22:10:19.422Z,69.44
2023-05-21T22:12:47.141Z,66.61
2023-05-21T22:15:25.029Z,65.35
2023-05-21T22:17:53.505Z,64.67
2023-05-21T22:20:26.022Z,63.31
2023-05-21T22:22:55.303Z,63.28
2023-05-21T22:25:23.334Z,61.30
2023-05-21T22:27:52.268Z,62.52
2023-05-21T22:30:20.376Z,61.01
2023-05-21T22:32:48.463Z,60.48
2023-05-21T22:35:16.321Z,60.37
2023-05-21T22:37:43.889Z,61.60
2023-05-21T22:40:12.020Z,61.98
2023-05-21T22:42:39.584Z,64.77
2023-05-21T22:45:08.508Z,65.22
2023-05-21T22:47:39.491Z,67.41
2023-05-21T22:50:08.219Z,65.98
2023-05-21T22:52:38.178Z,66.29
2023-05-21T22:55:06.402Z,68.31
2023-05-21T22:57:33.910Z,66.03
2023-05-21T23:00:01.877Z,65.52
2023-05-21T23:02:29.498Z,66.45
2023-05-21T23:04:58.215Z,65.40
2023-05-21T23:07:26.277Z,63.00
2023-05-21T23:09:53.838Z,60.85
2023-05-21T23:12:21.436Z,60.21
2023-05-21T23:14:49.019Z,57.10
2023-05-21T23:17:16.743Z,54.97
2023-05-21T23:19:44.306Z,52.05
2023-05-21T23:22:12.004Z,50.30
2023-05-21T23:24:39.646Z,51.38
2023-05-21T23:27:07.298Z,56.86
2023-05-21T23:29:34.817Z,59.37
2023-05-21T23:32:05.225Z,64.72
2023-05-21T23:34:33.030Z,67.20
2023-05-21T23:37:01.023Z,69.79
2023-05-21T23:39:28.842Z,65.47
2023-05-21T23:41:56.784Z,67.46
2023-05-21T23:44:24.621Z,66.38
2023-05-21T23:46:52.751Z,67.39
2023-05-21T23:49:20.527Z,62.90
2023-05-21T23:51:50.729Z,64.46
2023-05-21T23:54:18.886Z,64.75
2023-05-21T23:56:46.723Z,62.09
2023-05-21T23:59:16.895Z,61.77
